Time;durP1;ratioP1;P1;durP2;ratioP2;P2;SDS_P1;SDS_P2;PMS_P1;PMS_P2;Temp;Humidity;BMP_temperature;BMP_pressure;BME280_temperature;BME280_humidity;BME280_pressure;Samples;Min_cycle;Max_cycle;Signal;HPM_P1;HPM_P2
2022/10/13 00:01:17;;;;;;;56.03;36.25;;;9.30;99.90;;;;;;5004036;28;20036;-73
2022/10/13 00:03:45;;;;;;;47.30;34.83;;;9.30;99.90;;;;;;5009590;28;20043;-73
2022/10/13 00:06:13;;;;;;;47.55;34.45;;;9.30;99.90;;;;;;5013490;28;20475;-73
2022/10/13 00:08:40;;;;;;;49.45;35.38;;;9.30;99.90;;;;;;5004284;28;20033;-73
2022/10/13 00:11:14;;;;;;;46.63;34.10;;;9.20;99.90;;;;;;5019363;28;20105;-72
2022/10/13 00:13:41;;;;;;;48.60;34.28;;;9.20;99.90;;;;;;5005226;28;20038;-72
2022/10/13 00:16:06;;;;;;;52.20;35.90;;;9.20;99.90;;;;;;5018193;28;20029;-73
2022/10/13 00:18:32;;;;;;;48.83;34.55;;;9.10;99.90;;;;;;5018848;28;20033;-72
2022/10/13 00:20:58;;;;;;;53.70;36.53;;;9.10;99.90;;;;;;5019422;28;20033;-74
2022/10/13 00:23:23;;;;;;;55.10;36.30;;;9.10;99.90;;;;;;5002012;28;20022;-73
2022/10/13 00:25:50;;;;;;;59.65;38.78;;;9.00;99.90;;;;;;5015038;28;20033;-73
2022/10/13 00:28:17;;;;;;;60.47;37.85;;;9.10;99.90;;;;;;5015005;28;20384;-74
2022/10/13 00:30:44;;;;;;;48.05;35.10;;;9.00;99.90;;;;;;5002419;28;20038;-74
2022/10/13 00:33:11;;;;;;;46.15;34.13;;;9.00;99.90;;;;;;5009611;28;20026;-72
2022/10/13 00:35:44;;;;;;;47.80;33.92;;;9.10;99.90;;;;;;5013296;28;20503;-72
2022/10/13 00:38:11;;;;;;;48.33;33.95;;;9.10;99.90;;;;;;4998488;28;20034;-72
2022/10/13 00:40:47;;;;;;;49.78;34.67;;;9.20;99.90;;;;;;4995200;28;20023;-74
2022/10/13 00:44:05;;;;;;;53.05;36.45;;;9.30;99.90;;;;;;4986253;28;20022;-73
2022/10/13 00:46:32;;;;;;;;;;;9.40;99.90;;;;;;5008835;28;20041;-73
2022/10/13 00:49:01;;;;;;;56.78;37.60;;;9.30;99.90;;;;;;5010567;28;19928;-74
2022/10/13 00:51:30;;;;;;;54.10;37.05;;;9.30;99.90;;;;;;5001452;28;20018;-74
2022/10/13 00:53:58;;;;;;;77.63;43.70;;;9.30;99.90;;;;;;5010989;28;20043;-73
2022/10/13 00:56:26;;;;;;;71.68;42.83;;;9.40;99.90;;;;;;5012509;28;20022;-73
2022/10/13 00:58:53;;;;;;;62.40;39.38;;;9.40;99.90;;;;;;5007547;28;20027;-74
2022/10/13 01:01:18;;;;;;;70.38;41.90;;;9.60;99.90;;;;;;4992758;28;20033;-73
2022/10/13 01:03:44;;;;;;;79.22;45.33;;;9.60;99.90;;;;;;5009200;28;20026;-74
2022/10/13 01:06:11;;;;;;;59.83;39.10;;;9.70;99.90;;;;;;5010958;28;20109;-73
2022/10/13 01:08:37;;;;;;;74.78;44.10;;;9.70;99.90;;;;;;5011721;28;20020;-74
2022/10/13 01:11:11;;;;;;;86.53;49.60;;;9.70;99.90;;;;;;5012179;28;20029;-74
2022/10/13 01:13:46;;;;;;;92.65;49.35;;;9.70;99.90;;;;;;5007487;28;20158;-74
2022/10/13 01:16:43;;;;;;;75.78;45.97;;;9.60;99.90;;;;;;5004741;28;20080;-74
2022/10/13 01:19:37;;;;;;;69.35;44.70;;;9.60;99.90;;;;;;4991945;28;20042;-73
2022/10/13 01:22:53;;;;;;;94.28;51.90;;;9.70;99.90;;;;;;5005486;28;20058;-73
2022/10/13 01:25:56;;;;;;;101.90;54.58;;;9.80;99.90;;;;;;4985955;28;20030;-73
2022/10/13 01:28:40;;;;;;;89.22;51.50;;;9.70;99.90;;;;;;4959322;28;20392;-73
2022/10/13 01:31:17;;;;;;;88.55;52.50;;;9.60;99.90;;;;;;4987859;28;20034;-72
2022/10/13 01:33:52;;;;;;;96.63;54.67;;;9.70;99.90;;;;;;5002004;28;20765;-72
2022/10/13 01:36:31;;;;;;;106.00;58.70;;;9.80;99.90;;;;;;5010629;28;20088;-73
2022/10/13 01:39:04;;;;;;;98.53;54.60;;;9.90;99.90;;;;;;5010299;28;20026;-73
2022/10/13 01:41:37;;;;;;;105.07;56.08;;;9.90;99.90;;;;;;4986920;28;20038;-74
2022/10/13 01:44:14;;;;;;;110.95;57.47;;;9.80;99.90;;;;;;5009148;28;20085;-73
2022/10/13 01:46:41;;;;;;;124.38;60.85;;;9.70;99.90;;;;;;5000158;28;20488;-74
2022/10/13 01:49:11;;;;;;;125.35;59.85;;;9.70;99.90;;;;;;5005192;28;20084;-73
2022/10/13 01:51:38;;;;;;;130.00;62.38;;;9.70;99.90;;;;;;5000877;28;20022;-73
2022/10/13 01:54:04;;;;;;;129.23;64.40;;;9.70;99.90;;;;;;5010347;28;20026;-74
2022/10/13 01:56:30;;;;;;;109.75;57.45;;;9.70;99.90;;;;;;5005100;28;20029;-75
2022/10/13 01:59:00;;;;;;;142.27;65.63;;;9.70;99.90;;;;;;5006989;28;20058;-74
2022/10/13 02:02:02;;;;;;;121.93;61.40;;;9.70;99.90;;;;;;4995275;28;20385;-74
2022/10/13 02:04:55;;;;;;;106.00;58.25;;;9.80;99.90;;;;;;4998139;28;20032;-74
2022/10/13 02:07:33;;;;;;;110.28;58.78;;;9.80;99.90;;;;;;5011471;28;20026;-75
2022/10/13 02:10:20;;;;;;;128.68;62.83;;;9.80;99.90;;;;;;5008449;28;20101;-75
2022/10/13 02:12:58;;;;;;;110.32;58.50;;;9.90;99.90;;;;;;4997258;28;20113;-72
2022/10/13 02:15:40;;;;;;;105.95;57.08;;;9.90;99.90;;;;;;4997436;28;20096;-72
2022/10/13 02:18:08;;;;;;;106.35;56.95;;;9.80;99.90;;;;;;5005897;28;20034;-74
2022/10/13 02:20:34;;;;;;;98.78;56.28;;;9.90;99.90;;;;;;5011357;28;20412;-73
2022/10/13 02:23:05;;;;;;;100.40;55.10;;;9.90;99.90;;;;;;5010108;28;20029;-74
2022/10/13 02:25:33;;;;;;;101.72;55.22;;;9.90;99.90;;;;;;5011458;28;20026;-74
2022/10/13 02:28:00;;;;;;;112.32;58.35;;;10.00;99.90;;;;;;5009834;28;20489;-76
2022/10/13 02:30:28;;;;;;;133.73;62.38;;;9.90;99.90;;;;;;5011159;28;20049;-76
2022/10/13 02:32:53;;;;;;;111.28;57.03;;;9.90;99.90;;;;;;5006499;28;20030;-73
2022/10/13 02:35:19;;;;;;;127.13;62.50;;;9.90;99.90;;;;;;4993469;28;20093;-73
2022/10/13 02:37:45;;;;;;;90.07;52.78;;;9.90;99.90;;;;;;5008867;28;20040;-75
2022/10/13 02:40:12;;;;;;;97.70;54.35;;;10.00;99.90;;;;;;5014633;28;20105;-75
2022/10/13 02:42:38;;;;;;;77.72;45.63;;;10.00;99.90;;;;;;5014798;28;20030;-74
2022/10/13 02:45:04;;;;;;;75.18;44.00;;;10.00;99.90;;;;;;5013423;28;20076;-74
2022/10/13 02:47:29;;;;;;;64.38;40.35;;;9.90;99.90;;;;;;5014393;28;20064;-74
2022/10/13 02:49:55;;;;;;;63.10;41.13;;;9.90;99.90;;;;;;5003837;28;20053;-73
2022/10/13 02:52:20;;;;;;;64.43;40.60;;;9.70;99.90;;;;;;5009583;28;20026;-72
2022/10/13 02:54:46;;;;;;;70.35;43.65;;;9.70;99.90;;;;;;5014578;28;20026;-72
2022/10/13 02:57:12;;;;;;;77.63;44.40;;;9.70;99.90;;;;;;5006005;28;20041;-72
2022/10/13 02:59:37;;;;;;;72.13;43.65;;;9.70;99.90;;;;;;5014248;28;20030;-72
2022/10/13 03:02:03;;;;;;;67.40;43.88;;;9.70;99.90;;;;;;5014334;28;20392;-73
2022/10/13 03:04:29;;;;;;;88.45;48.35;;;9.80;99.90;;;;;;5014423;28;20069;-73
2022/10/13 03:06:54;;;;;;;75.00;46.53;;;9.60;99.90;;;;;;5014108;28;20212;-72
2022/10/13 03:09:20;;;;;;;92.13;49.70;;;9.60;99.90;;;;;;5012842;28;20040;-72
2022/10/13 03:11:45;;;;;;;75.97;44.95;;;9.70;99.90;;;;;;5014412;28;20496;-72
2022/10/13 03:14:11;;;;;;;98.10;50.92;;;9.70;99.90;;;;;;5012878;28;20037;-72
2022/10/13 03:16:36;;;;;;;79.03;46.33;;;9.60;99.90;;;;;;5012790;28;20407;-72
2022/10/13 03:19:02;;;;;;;89.30;49.60;;;9.60;99.90;;;;;;4998047;28;20023;-73
2022/10/13 03:21:27;;;;;;;84.70;49.60;;;9.50;99.90;;;;;;5009854;28;20369;-73
2022/10/13 03:23:53;;;;;;;78.90;46.72;;;9.50;99.90;;;;;;5013943;28;20030;-72
2022/10/13 03:26:18;;;;;;;74.38;45.97;;;9.50;99.90;;;;;;5013886;28;20022;-73
2022/10/13 03:28:51;;;;;;;94.45;50.10;;;9.50;99.90;;;;;;5013529;28;20471;-72
2022/10/13 03:31:17;;;;;;;77.57;44.70;;;9.60;99.90;;;;;;5013830;28;20026;-73
2022/10/13 03:33:43;;;;;;;70.25;42.80;;;9.50;99.90;;;;;;5013890;28;20084;-73
2022/10/13 03:36:10;;;;;;;68.30;42.58;;;9.50;99.90;;;;;;5013714;28;20064;-73
2022/10/13 03:38:35;;;;;;;67.38;41.70;;;9.50;99.90;;;;;;5012264;28;20033;-73
2022/10/13 03:41:19;;;;;;;73.28;45.45;;;9.50;99.90;;;;;;5006684;28;20721;-73
2022/10/13 03:43:45;;;;;;;73.80;45.88;;;9.50;99.90;;;;;;4995150;28;20503;-73
2022/10/13 03:46:13;;;;;;;77.50;46.72;;;9.60;99.90;;;;;;5011437;28;20022;-73
2022/10/13 03:48:39;;;;;;;84.70;51.33;;;9.70;99.90;;;;;;5012489;28;20395;-74
2022/10/13 03:51:06;;;;;;;92.10;53.95;;;9.80;99.90;;;;;;4998940;28;20038;-74
2022/10/13 03:53:32;;;;;;;95.28;53.20;;;10.00;99.90;;;;;;5013515;28;20032;-73
2022/10/13 03:55:57;;;;;;;93.50;53.42;;;10.00;99.90;;;;;;5007456;28;20030;-74
2022/10/13 03:58:24;;;;;;;91.30;54.55;;;10.00;99.90;;;;;;5004826;28;20022;-74
2022/10/13 04:00:51;;;;;;;96.72;53.92;;;9.90;99.90;;;;;;4993835;28;20041;-73
2022/10/13 04:03:16;;;;;;;99.53;56.08;;;9.80;99.90;;;;;;5006421;28;20029;-74
2022/10/13 04:05:42;;;;;;;117.50;57.78;;;9.70;99.90;;;;;;5000234;28;20018;-74
2022/10/13 04:08:08;;;;;;;120.85;57.47;;;9.70;99.90;;;;;;5000249;28;20038;-74
2022/10/13 04:10:34;;;;;;;124.70;60.60;;;9.70;99.90;;;;;;5012934;28;20022;-74
2022/10/13 04:12:59;;;;;;;116.55;59.13;;;9.70;99.90;;;;;;5013093;28;20030;-74
2022/10/13 04:15:25;;;;;;;88.18;50.63;;;9.80;99.90;;;;;;5005440;28;20030;-73
2022/10/13 04:17:51;;;;;;;94.05;54.60;;;9.80;99.90;;;;;;5006074;28;20037;-74
2022/10/13 04:20:17;;;;;;;103.15;56.25;;;9.90;99.90;;;;;;5012764;28;20036;-74
2022/10/13 04:22:42;;;;;;;98.40;55.80;;;9.90;99.90;;;;;;5013086;28;20057;-74
2022/10/13 04:25:08;;;;;;;94.35;53.55;;;9.90;99.90;;;;;;5012902;28;20690;-74
2022/10/13 04:27:37;;;;;;;90.47;52.75;;;9.90;99.90;;;;;;4999400;28;20026;-74
2022/10/13 04:30:05;;;;;;;93.28;56.03;;;9.90;99.90;;;;;;5006214;28;20027;-74
2022/10/13 04:32:30;;;;;;;89.20;54.10;;;10.00;99.90;;;;;;5006413;28;20026;-74
2022/10/13 04:34:56;;;;;;;95.88;54.40;;;10.00;99.90;;;;;;5006168;28;20027;-73
2022/10/13 04:37:22;;;;;;;100.68;54.22;;;10.10;99.90;;;;;;4991717;28;20077;-74
2022/10/13 04:39:48;;;;;;;111.10;56.78;;;10.00;99.90;;;;;;4999576;28;20038;-74
2022/10/13 04:42:13;;;;;;;94.40;49.85;;;9.80;99.90;;;;;;4999515;28;20439;-74
2022/10/13 04:44:39;;;;;;;81.32;47.72;;;9.80;99.90;;;;;;5005971;28;20035;-75
2022/10/13 04:47:05;;;;;;;100.78;56.15;;;9.70;99.90;;;;;;5006004;28;20022;-75
2022/10/13 04:49:30;;;;;;;105.85;58.28;;;9.70;99.90;;;;;;4999313;28;20037;-74
2022/10/13 04:51:56;;;;;;;112.75;63.83;;;9.90;99.90;;;;;;5012428;28;20022;-75
2022/10/13 04:54:21;;;;;;;255.73;182.55;;;9.90;99.90;;;;;;4997883;28;20116;-75
2022/10/13 04:56:47;;;;;;;126.10;73.72;;;9.90;99.90;;;;;;4999657;28;20469;-76
2022/10/13 04:59:13;;;;;;;113.05;64.95;;;9.80;99.90;;;;;;5005996;28;20540;-74
2022/10/13 05:01:38;;;;;;;109.45;57.65;;;9.90;99.90;;;;;;4992759;28;20102;-75
2022/10/13 05:04:04;;;;;;;115.95;60.40;;;9.90;99.90;;;;;;4998044;28;20042;-75
2022/10/13 05:06:33;;;;;;;108.35;61.15;;;9.90;99.90;;;;;;5012238;28;20423;-75
2022/10/13 05:08:59;;;;;;;99.15;57.60;;;10.00;99.90;;;;;;4998891;28;20033;-75
2022/10/13 05:11:26;;;;;;;107.30;61.17;;;10.00;99.90;;;;;;4998681;28;20034;-74
2022/10/13 05:13:51;;;;;;;103.65;57.85;;;10.10;99.90;;;;;;5010347;28;20033;-74
2022/10/13 05:16:19;;;;;;;103.53;58.30;;;10.10;99.90;;;;;;5012171;28;20384;-74
2022/10/13 05:18:46;;;;;;;101.05;57.25;;;10.10;99.90;;;;;;4998585;28;20037;-75
2022/10/13 05:21:26;;;;;;;104.95;58.65;;;10.20;99.90;;;;;;4999238;28;20076;-74
2022/10/13 05:23:54;;;;;;;108.65;61.03;;;10.20;99.90;;;;;;4989452;28;20026;-74
2022/10/13 05:26:20;;;;;;;110.18;59.42;;;10.20;99.90;;;;;;4998870;28;20018;-74
2022/10/13 05:28:46;;;;;;;103.18;57.58;;;10.20;99.90;;;;;;5001900;28;20023;-74
2022/10/13 05:31:20;;;;;;;103.25;56.63;;;10.20;99.90;;;;;;5005753;28;20026;-74
2022/10/13 05:33:47;;;;;;;93.65;55.08;;;10.30;99.90;;;;;;4995648;28;20380;-74
2022/10/13 05:36:15;;;;;;;98.57;56.47;;;10.30;99.90;;;;;;5002332;28;20495;-75
2022/10/13 05:38:41;;;;;;;98.57;57.40;;;10.30;99.90;;;;;;5001040;28;20042;-74
2022/10/13 05:41:10;;;;;;;108.07;63.78;;;10.30;99.90;;;;;;4998413;28;20168;-75
2022/10/13 05:43:37;;;;;;;102.97;61.38;;;10.30;99.90;;;;;;5000904;28;20023;-75
2022/10/13 05:46:03;;;;;;;103.25;58.22;;;10.30;99.90;;;;;;5004642;28;20045;-74
2022/10/13 05:48:29;;;;;;;133.70;76.80;;;10.40;99.90;;;;;;5002094;28;20362;-74
2022/10/13 05:50:57;;;;;;;136.18;83.30;;;10.40;99.90;;;;;;4979094;28;20105;-73
2022/10/13 05:53:25;;;;;;;104.93;62.75;;;10.50;99.90;;;;;;5003612;28;20503;-74
2022/10/13 05:55:53;;;;;;;101.00;58.80;;;10.50;99.90;;;;;;4998454;28;20489;-74
2022/10/13 05:58:19;;;;;;;105.68;57.67;;;10.50;99.90;;;;;;5010175;28;20030;-74
2022/10/13 06:00:45;;;;;;;98.78;55.83;;;10.50;99.90;;;;;;5006364;28;20026;-74
2022/10/13 06:03:14;;;;;;;96.10;58.33;;;10.50;99.90;;;;;;5003598;28;20018;-74
2022/10/13 06:05:42;;;;;;;100.88;57.22;;;10.50;99.90;;;;;;5010274;28;20026;-74
2022/10/13 06:08:08;;;;;;;102.25;58.15;;;10.50;99.90;;;;;;5011375;28;20025;-73
2022/10/13 06:10:36;;;;;;;95.35;56.22;;;10.50;99.90;;;;;;5005896;28;20030;-74
2022/10/13 06:13:01;;;;;;;100.22;57.55;;;10.40;99.90;;;;;;4993873;28;20044;-73
2022/10/13 06:15:27;;;;;;;106.88;58.03;;;10.40;99.90;;;;;;5013349;28;20026;-75
2022/10/13 06:17:52;;;;;;;106.05;59.47;;;10.50;99.90;;;;;;5002945;28;20512;-74
2022/10/13 06:20:19;;;;;;;106.07;57.88;;;10.50;99.90;;;;;;5008686;28;20503;-74
2022/10/13 06:22:45;;;;;;;103.05;57.75;;;10.50;99.90;;;;;;4995262;28;20050;-73
2022/10/13 06:25:10;;;;;;;99.75;59.90;;;10.50;99.90;;;;;;5014082;28;20022;-73
2022/10/13 06:27:36;;;;;;;98.40;58.55;;;10.50;99.90;;;;;;5006792;28;20050;-74
2022/10/13 06:30:02;;;;;;;99.38;59.38;;;10.60;99.90;;;;;;5008432;28;20493;-74
2022/10/13 06:32:28;;;;;;;103.88;59.65;;;10.60;99.90;;;;;;5007285;28;20092;-73
2022/10/13 06:34:53;;;;;;;99.40;58.25;;;10.60;99.90;;;;;;5013653;28;20480;-74
2022/10/13 06:37:19;;;;;;;100.47;58.08;;;10.60;99.90;;;;;;5014625;28;20033;-73
2022/10/13 06:39:44;;;;;;;96.20;57.13;;;10.60;99.90;;;;;;5001363;28;20033;-75
2022/10/13 06:42:10;;;;;;;99.53;57.63;;;10.70;99.90;;;;;;5013474;28;20029;-74
2022/10/13 06:44:35;;;;;;;101.00;58.53;;;10.70;99.90;;;;;;5008474;28;20078;-73
2022/10/13 06:47:03;;;;;;;101.07;57.25;;;10.70;99.90;;;;;;5006448;28;20033;-73
2022/10/13 06:49:28;;;;;;;101.20;62.17;;;10.80;99.90;;;;;;5008663;28;20033;-73
2022/10/13 06:51:54;;;;;;;113.68;74.20;;;10.70;99.90;;;;;;5007685;28;20026;-74
2022/10/13 06:54:19;;;;;;;147.80;98.90;;;10.70;99.90;;;;;;5014570;28;20673;-74
2022/10/13 06:56:45;;;;;;;167.18;109.50;;;10.80;99.90;;;;;;4995229;28;20093;-72
2022/10/13 06:59:10;;;;;;;131.32;84.88;;;10.80;99.90;;;;;;5012269;28;20066;-75
2022/10/13 07:01:36;;;;;;;118.20;69.13;;;10.80;99.90;;;;;;5012862;28;20098;-74
2022/10/13 07:04:02;;;;;;;109.97;61.38;;;10.80;99.90;;;;;;5000390;28;20068;-73
2022/10/13 07:06:27;;;;;;;112.07;65.68;;;10.80;99.90;;;;;;5000420;28;20018;-74
2022/10/13 07:08:53;;;;;;;148.27;90.40;;;10.70;99.90;;;;;;5012515;28;20447;-74
2022/10/13 07:11:19;;;;;;;94.05;55.63;;;10.70;99.90;;;;;;5014371;28;20037;-73
2022/10/13 07:13:44;;;;;;;100.00;60.60;;;10.80;99.90;;;;;;5014246;28;20065;-74
2022/10/13 07:16:10;;;;;;;107.60;61.70;;;10.80;99.90;;;;;;5014264;28;20088;-73
2022/10/13 07:18:36;;;;;;;126.78;70.72;;;10.80;99.90;;;;;;5007704;28;20444;-74
2022/10/13 07:21:02;;;;;;;89.78;54.85;;;10.80;99.90;;;;;;5005848;28;20484;-73
2022/10/13 07:23:28;;;;;;;94.22;55.80;;;10.80;99.90;;;;;;5000729;28;20022;-73
2022/10/13 07:25:56;;;;;;;95.95;56.35;;;10.80;99.90;;;;;;5002489;28;20022;-73
2022/10/13 07:28:26;;;;;;;94.47;56.58;;;10.80;99.90;;;;;;5011425;28;20022;-73
2022/10/13 07:30:52;;;;;;;90.93;53.45;;;10.80;99.90;;;;;;5013771;28;20060;-73
2022/10/13 07:33:18;;;;;;;85.95;53.13;;;10.80;99.90;;;;;;5006566;28;20030;-72
2022/10/13 07:35:44;;;;;;;87.72;53.25;;;10.80;99.90;;;;;;5006988;28;20530;-73
2022/10/13 07:38:10;;;;;;;87.35;52.60;;;10.80;99.90;;;;;;5000334;28;20038;-73
2022/10/13 07:40:37;;;;;;;87.00;54.33;;;10.80;99.90;;;;;;5013580;28;20026;-73
2022/10/13 07:43:02;;;;;;;87.07;54.10;;;11.00;99.90;;;;;;5000528;28;20029;-73
2022/10/13 07:45:28;;;;;;;86.28;50.88;;;10.80;99.90;;;;;;5012428;28;20026;-74
2022/10/13 07:47:54;;;;;;;85.43;52.00;;;10.80;99.90;;;;;;5007352;28;20077;-73
2022/10/13 07:50:20;;;;;;;80.95;49.78;;;10.80;99.90;;;;;;4994108;28;20081;-73
2022/10/13 07:52:45;;;;;;;83.80;50.45;;;10.90;99.90;;;;;;5006938;28;20030;-74
2022/10/13 07:55:11;;;;;;;92.50;56.95;;;10.90;99.90;;;;;;5006665;28;20026;-73
2022/10/13 07:57:37;;;;;;;89.75;55.83;;;10.90;99.90;;;;;;4992643;28;20033;-73
2022/10/13 08:00:05;;;;;;;87.85;53.90;;;11.00;99.90;;;;;;5004966;28;20029;-73
2022/10/13 08:02:31;;;;;;;82.75;50.92;;;11.00;99.90;;;;;;4986903;28;20476;-73
2022/10/13 08:04:56;;;;;;;83.10;51.60;;;10.90;99.90;;;;;;5012018;28;20028;-73
2022/10/13 08:07:22;;;;;;;87.13;54.25;;;11.00;99.90;;;;;;5005331;28;20026;-74
2022/10/13 08:09:48;;;;;;;83.32;50.42;;;11.10;99.90;;;;;;5006374;28;20030;-74
2022/10/13 08:12:13;;;;;;;73.50;46.33;;;11.20;99.90;;;;;;4998698;28;20034;-75
2022/10/13 08:14:39;;;;;;;73.90;47.50;;;11.20;99.90;;;;;;5011879;28;20018;-74
2022/10/13 08:17:04;;;;;;;74.40;46.50;;;11.40;99.90;;;;;;5006727;28;20388;-76
2022/10/13 08:19:30;;;;;;;72.10;45.20;;;11.50;99.90;;;;;;5004684;28;20078;-76
2022/10/13 08:21:55;;;;;;;80.85;47.85;;;11.60;99.90;;;;;;5000632;28;20022;-76
2022/10/13 08:24:21;;;;;;;73.05;46.45;;;11.60;99.90;;;;;;5005804;28;20421;-77
2022/10/13 08:26:47;;;;;;;76.38;45.25;;;11.60;99.90;;;;;;4997772;28;20454;-76
2022/10/13 08:29:13;;;;;;;78.13;47.22;;;11.50;99.90;;;;;;5004302;28;20391;-76
2022/10/13 08:31:40;;;;;;;75.55;45.92;;;11.50;99.90;;;;;;4998057;28;20030;-76
2022/10/13 08:34:05;;;;;;;80.07;45.60;;;11.60;99.90;;;;;;5011690;28;20026;-76
2022/10/13 08:36:31;;;;;;;78.45;45.53;;;11.60;99.90;;;;;;4998858;28;20104;-76
2022/10/13 08:38:57;;;;;;;76.18;44.30;;;11.70;99.90;;;;;;5000374;28;20089;-76
2022/10/13 08:41:27;;;;;;;84.80;46.67;;;12.00;99.90;;;;;;5011833;28;20037;-77
2022/10/13 08:44:06;;;;;;;79.65;44.78;;;11.60;99.90;;;;;;4998609;28;20022;-76
2022/10/13 08:46:42;;;;;;;86.25;46.90;;;11.50;99.90;;;;;;4989326;28;20022;-76
2022/10/13 08:49:07;;;;;;;;;;;11.60;99.90;;;;;;4994075;28;20033;-77
2022/10/13 08:51:35;;;;;;;89.47;48.00;;;11.60;99.90;;;;;;4990891;28;20262;-77
2022/10/13 08:54:00;;;;;;;85.97;47.70;;;11.50;99.90;;;;;;4999277;28;20506;-76
2022/10/13 08:56:32;;;;;;;90.47;47.97;;;11.50;99.90;;;;;;5002682;28;20031;-77
2022/10/13 08:58:57;;;;;;;88.15;48.88;;;11.60;99.90;;;;;;5005660;28;20033;-75
2022/10/13 09:01:27;;;;;;;87.90;48.30;;;11.60;99.90;;;;;;5004158;28;20026;-77
2022/10/13 09:04:02;;;;;;;81.20;46.78;;;11.50;99.90;;;;;;5012787;28;20392;-77
2022/10/13 09:06:35;;;;;;;96.78;48.72;;;11.50;99.90;;;;;;5003999;28;20018;-77
2022/10/13 09:09:04;;;;;;;87.90;46.63;;;11.50;99.90;;;;;;4997997;28;20029;-77
2022/10/13 09:11:39;;;;;;;88.68;47.90;;;11.50;99.90;;;;;;5012311;28;20484;-76
2022/10/13 09:14:21;;;;;;;84.57;46.97;;;11.60;99.90;;;;;;5007168;28;20559;-77
2022/10/13 09:16:47;;;;;;;86.40;47.78;;;11.70;99.90;;;;;;4997563;28;20022;-77
2022/10/13 09:19:21;;;;;;;91.95;47.45;;;11.70;99.90;;;;;;5011999;28;20030;-76
2022/10/13 09:21:48;;;;;;;92.68;49.22;;;11.90;99.90;;;;;;5006163;28;20029;-76
2022/10/13 09:24:17;;;;;;;89.80;47.47;;;11.90;99.90;;;;;;5002615;28;20029;-77
2022/10/13 09:26:44;;;;;;;97.45;48.83;;;11.90;99.90;;;;;;4999035;28;20026;-77
2022/10/13 09:29:17;;;;;;;87.78;48.03;;;11.90;99.90;;;;;;4999022;28;20034;-77
2022/10/13 09:31:42;;;;;;;86.30;47.28;;;12.00;99.90;;;;;;4998626;28;20112;-76
2022/10/13 09:34:21;;;;;;;89.78;49.42;;;12.20;99.90;;;;;;4999416;28;20433;-77
2022/10/13 09:37:02;;;;;;;90.43;47.08;;;12.40;99.90;;;;;;4987169;28;20468;-77
2022/10/13 09:39:28;;;;;;;96.40;47.70;;;12.40;99.90;;;;;;4997390;28;20032;-77
2022/10/13 09:42:21;;;;;;;92.25;47.78;;;12.20;99.90;;;;;;5002134;28;20019;-77
2022/10/13 09:44:56;;;;;;;107.10;51.65;;;12.00;99.90;;;;;;4986460;28;20026;-77
2022/10/13 09:47:21;;;;;;;95.50;47.88;;;12.10;99.90;;;;;;4999208;28;20034;-77
2022/10/13 09:50:18;;;;;;;92.85;44.95;;;12.10;99.90;;;;;;5007638;28;20026;-76
2022/10/13 09:52:45;;;;;;;88.28;46.67;;;12.10;99.90;;;;;;5010980;28;20034;-76
2022/10/13 09:55:31;;;;;;;94.28;45.78;;;12.10;99.90;;;;;;5008802;28;20026;-76
2022/10/13 09:58:08;;;;;;;92.30;45.20;;;12.00;99.90;;;;;;5000607;28;20167;-77
2022/10/13 10:00:36;;;;;;;84.45;45.17;;;12.10;99.90;;;;;;5011856;28;20477;-77
2022/10/13 10:03:13;;;;;;;94.45;45.97;;;12.20;99.90;;;;;;5006487;28;20029;-76
2022/10/13 10:05:52;;;;;;;84.28;45.33;;;12.00;99.90;;;;;;5008844;28;20026;-77
2022/10/13 10:08:58;;;;;;;93.40;45.40;;;12.20;99.90;;;;;;5009307;28;20050;-76
2022/10/13 10:11:32;;;;;;;88.47;43.28;;;12.20;99.90;;;;;;5015141;28;20041;-76
2022/10/13 10:14:08;;;;;;;87.22;44.97;;;12.30;99.90;;;;;;4990126;28;20021;-77
2022/10/13 10:16:53;;;;;;;92.03;43.85;;;12.50;99.90;;;;;;5002057;28;20034;-76
2022/10/13 10:19:42;;;;;;;80.40;42.65;;;12.50;99.90;;;;;;5013915;28;20634;-78
2022/10/13 10:22:19;;;;;;;86.60;44.20;;;12.60;99.90;;;;;;4991572;28;20129;-78
2022/10/13 10:25:29;;;;;;;89.05;42.72;;;12.50;99.90;;;;;;5000718;28;20018;-77
2022/10/13 10:28:00;;;;;;;79.18;42.05;;;12.60;99.90;;;;;;4978500;28;20070;-77
2022/10/13 10:30:29;;;;;;;78.28;40.72;;;12.60;99.90;;;;;;5006301;28;20571;-78
2022/10/13 10:33:05;;;;;;;80.78;42.40;;;12.60;99.90;;;;;;5007393;28;20619;-76
2022/10/13 10:36:02;;;;;;;80.93;42.75;;;12.60;99.90;;;;;;5006219;28;20105;-76
2022/10/13 10:38:47;;;;;;;84.95;41.50;;;12.60;99.90;;;;;;4992523;28;20451;-77
2022/10/13 10:41:23;;;;;;;78.25;39.40;;;12.60;99.90;;;;;;5001924;28;20032;-76
2022/10/13 10:44:17;;;;;;;81.13;41.42;;;12.70;99.90;;;;;;5015585;28;20018;-76
2022/10/13 10:46:47;;;;;;;76.90;41.10;;;12.70;99.90;;;;;;4994133;28;20026;-76
2022/10/13 10:49:31;;;;;;;73.55;39.38;;;12.60;99.90;;;;;;4994704;28;20105;-77
2022/10/13 10:52:00;;;;;;;75.95;38.63;;;12.50;99.90;;;;;;4987159;28;20034;-76
2022/10/13 10:54:44;;;;;;;75.10;40.20;;;12.60;99.90;;;;;;4988795;28;20483;-74
2022/10/13 10:57:18;;;;;;;76.70;40.70;;;12.60;99.90;;;;;;5000203;28;20034;-76
2022/10/13 11:00:07;;;;;;;74.15;38.83;;;12.70;99.90;;;;;;5002790;28;20030;-76
2022/10/13 11:03:00;;;;;;;72.38;38.72;;;12.70;99.90;;;;;;4989316;28;20018;-76
2022/10/13 11:05:49;;;;;;;68.38;37.53;;;12.80;99.90;;;;;;5010476;28;20022;-76
2022/10/13 11:08:36;;;;;;;65.97;35.75;;;12.90;99.90;;;;;;5007876;28;20018;-77
2022/10/13 11:11:32;;;;;;;66.68;35.50;;;13.20;99.90;;;;;;5005020;28;20026;-76
2022/10/13 11:14:14;;;;;;;63.97;35.47;;;13.20;99.90;;;;;;4989216;28;20026;-76
2022/10/13 11:17:02;;;;;;;65.38;34.70;;;13.20;99.90;;;;;;5001294;28;20034;-76
2022/10/13 11:19:30;;;;;;;66.65;35.00;;;13.10;99.90;;;;;;5014145;28;20022;-75
2022/10/13 11:21:56;;;;;;;58.58;32.50;;;12.90;99.90;;;;;;5001096;28;20145;-76
2022/10/13 11:24:40;;;;;;;61.75;34.63;;;13.00;99.90;;;;;;5001271;28;20043;-76
2022/10/13 11:27:15;;;;;;;59.70;32.95;;;12.90;99.90;;;;;;5012616;28;20037;-76
2022/10/13 11:29:52;;;;;;;60.78;34.08;;;13.00;99.90;;;;;;5000692;28;20033;-76
2022/10/13 11:32:24;;;;;;;57.17;33.67;;;13.00;99.90;;;;;;5013898;28;20026;-76
2022/10/13 11:35:00;;;;;;;57.92;33.92;;;13.00;99.90;;;;;;5008398;28;20496;-76
2022/10/13 11:37:50;;;;;;;59.10;33.47;;;13.10;99.90;;;;;;5034459;23;20040;-74
2022/10/13 11:40:31;;;;;;;68.05;33.33;;;12.90;99.90;;;;;;5025064;28;20045;-73
2022/10/13 11:43:11;;;;;;;53.25;31.55;;;12.80;99.90;;;;;;5032699;28;20025;-73
2022/10/13 11:46:05;;;;;;;57.17;31.08;;;12.60;99.90;;;;;;5018411;28;20025;-73
2022/10/13 11:48:55;;;;;;;57.67;32.33;;;12.40;99.90;;;;;;5012260;28;20017;-73
2022/10/13 11:51:56;;;;;;;63.38;33.67;;;12.30;99.90;;;;;;5001882;28;20026;-73
2022/10/13 11:54:34;;;;;;;59.03;33.60;;;12.40;99.90;;;;;;4963853;28;20167;-72
2022/10/13 11:56:59;;;;;;;55.20;34.38;;;12.40;99.90;;;;;;5012728;28;20048;-74
2022/10/13 11:59:29;;;;;;;55.15;33.83;;;12.70;99.90;;;;;;5013148;28;20491;-74
2022/10/13 12:02:08;;;;;;;55.08;32.45;;;12.90;99.90;;;;;;5013291;28;20360;-73
2022/10/13 12:04:34;;;;;;;54.13;32.05;;;12.90;99.90;;;;;;5013322;28;20028;-72
2022/10/13 12:07:06;;;;;;;57.45;33.63;;;12.90;99.90;;;;;;4999919;28;20129;-74
2022/10/13 12:09:45;;;;;;;49.65;30.77;;;13.00;99.90;;;;;;5011267;28;20026;-73
2022/10/13 12:12:14;;;;;;;55.83;32.10;;;13.20;99.90;;;;;;5012124;28;20018;-73
2022/10/13 12:14:42;;;;;;;56.95;32.38;;;13.30;99.90;;;;;;5011883;28;20024;-73
2022/10/13 12:17:20;;;;;;;47.38;30.83;;;13.60;99.90;;;;;;4999841;28;20101;-72
2022/10/13 12:19:45;;;;;;;49.55;30.70;;;13.60;99.90;;;;;;4999543;28;20031;-73
2022/10/13 12:22:13;;;;;;;46.83;30.17;;;13.50;99.90;;;;;;5011545;28;20103;-73
2022/10/13 12:24:38;;;;;;;52.40;31.33;;;13.50;99.90;;;;;;5012816;28;20014;-74
2022/10/13 12:27:18;;;;;;;50.75;30.92;;;13.50;99.90;;;;;;5011373;28;20018;-73
2022/10/13 12:29:44;;;;;;;55.08;30.33;;;13.50;99.90;;;;;;4999511;28;20057;-72
2022/10/13 12:32:26;;;;;;;49.97;30.33;;;13.30;99.90;;;;;;5012832;28;20069;-73
2022/10/13 12:34:51;;;;;;;50.47;30.98;;;13.10;99.90;;;;;;5007382;28;20026;-73
2022/10/13 12:37:29;;;;;;;52.40;31.48;;;13.20;99.90;;;;;;5004792;28;20038;-74
2022/10/13 12:39:57;;;;;;;53.33;29.92;;;13.40;99.90;;;;;;5000215;28;20026;-73
2022/10/13 12:42:30;;;;;;;53.50;31.60;;;13.40;99.90;;;;;;4999327;28;20049;-71
2022/10/13 12:44:57;;;;;;;51.88;29.52;;;13.50;99.90;;;;;;5004389;28;20037;-73
2022/10/13 12:47:42;;;;;;;49.83;29.52;;;13.50;99.90;;;;;;5007761;28;20029;-74